Time;durP1;ratioP1;P1;durP2;ratioP2;P2;SDS_P1;SDS_P2;PMS_P1;PMS_P2;Temp;Humidity;BMP_temperature;BMP_pressure;BME280_temperature;BME280_humidity;BME280_pressure;Samples;Min_cycle;Max_cycle;Signal;HPM_P1;HPM_P2
2023/04/21 00:02:14;;;;;;;31.45;28.35;;;6.00;99.90;;;;;;6082177;23;20624;-71
2023/04/21 00:05:00;;;;;;;28.27;25.63;;;6.00;99.90;;;;;;6082872;23;20195;-72
2023/04/21 00:07:29;;;;;;;28.30;25.60;;;6.00;99.90;;;;;;6079633;23;20204;-72
2023/04/21 00:09:56;;;;;;;25.92;23.30;;;6.10;99.90;;;;;;6083748;23;20726;-72
2023/04/21 00:12:25;;;;;;;25.92;23.50;;;6.10;99.90;;;;;;6080801;23;20181;-72
2023/04/21 00:14:52;;;;;;;26.75;24.25;;;6.10;99.90;;;;;;6082980;23;20185;-72
2023/04/21 00:17:19;;;;;;;26.27;23.67;;;6.10;99.90;;;;;;6081599;23;20252;-72
2023/04/21 00:19:47;;;;;;;25.33;22.83;;;6.10;99.90;;;;;;6076848;23;20184;-72
2023/04/21 00:22:14;;;;;;;24.65;22.35;;;6.00;99.90;;;;;;6082915;23;20263;-71
2023/04/21 00:24:41;;;;;;;26.90;24.27;;;6.00;99.90;;;;;;6071250;23;20259;-71
2023/04/21 00:27:08;;;;;;;26.20;23.60;;;6.00;99.90;;;;;;6067487;23;20236;-71
2023/04/21 00:29:37;;;;;;;24.77;22.38;;;6.00;99.90;;;;;;6087179;23;20188;-71
2023/04/21 00:32:07;;;;;;;25.10;22.70;;;5.90;99.90;;;;;;6087784;23;20695;-72
2023/04/21 00:34:34;;;;;;;25.27;22.88;;;6.10;99.90;;;;;;6081187;23;20227;-72
2023/04/21 00:37:01;;;;;;;26.05;23.45;;;5.90;99.90;;;;;;6073986;23;20316;-71
2023/04/21 00:39:28;;;;;;;26.13;23.52;;;5.80;99.90;;;;;;6078202;23;20185;-71
2023/04/21 00:41:56;;;;;;;29.52;26.58;;;5.80;99.90;;;;;;6085935;23;20643;-71
2023/04/21 00:44:23;;;;;;;26.58;24.08;;;5.80;99.90;;;;;;6082832;23;20192;-72
2023/04/21 00:46:51;;;;;;;24.40;22.00;;;5.70;99.90;;;;;;6078163;23;20248;-72
2023/04/21 00:49:18;;;;;;;28.23;25.42;;;5.70;99.90;;;;;;6068250;23;20201;-72
2023/04/21 00:51:45;;;;;;;28.02;25.33;;;5.60;99.90;;;;;;6077223;23;20238;-71
2023/04/21 00:54:14;;;;;;;27.38;24.73;;;5.60;99.90;;;;;;6074231;23;20184;-72
2023/04/21 00:56:41;;;;;;;30.52;27.42;;;5.60;99.90;;;;;;6082492;23;20277;-71
2023/04/21 00:59:08;;;;;;;30.88;27.77;;;5.50;99.90;;;;;;6073020;23;20259;-71
2023/04/21 01:01:36;;;;;;;27.38;24.73;;;5.50;99.90;;;;;;6083430;23;20497;-72
2023/04/21 01:04:05;;;;;;;29.60;26.60;;;5.50;99.90;;;;;;6071960;23;20207;-71
2023/04/21 01:06:33;;;;;;;31.20;27.90;;;5.50;99.90;;;;;;6079214;23;20651;-71
2023/04/21 01:09:00;;;;;;;28.33;25.33;;;5.50;99.90;;;;;;6081781;23;20644;-71
2023/04/21 01:11:27;;;;;;;30.35;27.25;;;5.50;99.90;;;;;;6076507;23;20221;-71
2023/04/21 01:13:55;;;;;;;27.33;24.52;;;5.50;99.90;;;;;;6074246;23;20192;-72
2023/04/21 01:16:23;;;;;;;32.40;29.13;;;5.40;99.90;;;;;;6085588;23;20287;-71
2023/04/21 01:18:52;;;;;;;27.67;24.83;;;5.40;99.90;;;;;;6074724;23;20715;-71
2023/04/21 01:21:21;;;;;;;28.45;25.55;;;5.40;99.90;;;;;;6080705;23;20199;-71
2023/04/21 01:23:49;;;;;;;29.85;26.75;;;5.40;99.90;;;;;;6077313;23;20190;-71
2023/04/21 01:26:18;;;;;;;30.42;26.08;;;5.40;99.90;;;;;;6076506;23;20205;-71
2023/04/21 01:28:46;;;;;;;29.23;25.52;;;5.40;99.90;;;;;;6080752;23;20804;-71
2023/04/21 01:31:13;;;;;;;31.58;27.13;;;5.40;99.90;;;;;;6087628;23;20187;-71
2023/04/21 01:33:41;;;;;;;29.52;26.48;;;5.30;99.90;;;;;;6081135;23;20192;-71
2023/04/21 01:36:09;;;;;;;35.53;27.98;;;5.30;99.90;;;;;;6078020;23;20294;-71
2023/04/21 01:38:39;;;;;;;31.95;28.20;;;5.30;99.90;;;;;;6064497;23;20641;-71
2023/04/21 01:41:08;;;;;;;34.80;29.90;;;5.30;99.90;;;;;;6076939;23;20185;-71
2023/04/21 01:43:36;;;;;;;30.30;27.15;;;5.30;99.90;;;;;;6083073;23;20188;-71
2023/04/21 01:46:03;;;;;;;32.60;27.63;;;5.30;99.90;;;;;;6079079;23;20235;-71
2023/04/21 01:48:30;;;;;;;32.75;28.55;;;5.30;99.90;;;;;;6077061;23;20318;-71
2023/04/21 01:50:58;;;;;;;32.40;28.42;;;5.30;99.90;;;;;;6076269;23;20188;-71
2023/04/21 01:53:25;;;;;;;35.90;29.98;;;5.30;99.90;;;;;;6079175;23;20241;-71
2023/04/21 01:55:52;;;;;;;34.70;29.15;;;5.30;99.90;;;;;;6076786;23;20257;-71
2023/04/21 01:58:21;;;;;;;30.95;27.55;;;5.30;99.90;;;;;;6068462;23;20410;-71
2023/04/21 02:00:48;;;;;;;30.83;27.52;;;5.30;99.90;;;;;;6080653;23;20272;-71
2023/04/21 02:03:15;;;;;;;28.30;25.25;;;5.20;99.90;;;;;;6086715;23;20181;-71
2023/04/21 02:05:43;;;;;;;28.27;25.17;;;5.20;99.90;;;;;;6079803;23;20742;-71
2023/04/21 02:08:10;;;;;;;31.35;26.17;;;5.20;99.90;;;;;;6081614;23;20199;-71
2023/04/21 02:10:37;;;;;;;29.40;26.25;;;5.20;99.90;;;;;;6078919;23;20665;-71
2023/04/21 02:13:04;;;;;;;30.50;27.02;;;5.20;99.90;;;;;;6080681;23;20186;-71
2023/04/21 02:15:32;;;;;;;31.17;26.42;;;5.20;99.90;;;;;;6075427;23;20258;-71
2023/04/21 02:17:59;;;;;;;29.52;26.33;;;5.20;99.90;;;;;;6082533;23;20194;-71
2023/04/21 02:20:26;;;;;;;29.20;26.10;;;5.10;99.90;;;;;;6080311;23;20195;-71
2023/04/21 02:22:53;;;;;;;30.63;27.45;;;5.10;99.90;;;;;;6078836;23;20223;-71
2023/04/21 02:25:20;;;;;;;31.30;28.00;;;5.10;99.90;;;;;;6079713;23;20243;-71
2023/04/21 02:27:48;;;;;;;34.88;29.48;;;5.10;99.90;;;;;;6082710;23;20249;-71
2023/04/21 02:30:15;;;;;;;29.02;25.98;;;5.10;99.90;;;;;;6079312;23;20362;-72
2023/04/21 02:32:43;;;;;;;31.13;27.52;;;5.10;99.90;;;;;;6069113;23;20181;-71
2023/04/21 02:35:10;;;;;;;30.58;26.90;;;5.10;99.90;;;;;;6082461;23;20188;-71
2023/04/21 02:37:37;;;;;;;30.30;26.98;;;5.00;99.90;;;;;;6067362;23;20702;-71
2023/04/21 02:40:06;;;;;;;29.27;26.30;;;5.00;99.90;;;;;;6084089;23;20660;-71
2023/04/21 02:42:33;;;;;;;28.88;25.75;;;5.00;99.90;;;;;;6083641;23;20192;-72
2023/04/21 02:45:00;;;;;;;28.00;25.05;;;5.00;99.90;;;;;;6073625;23;20258;-71
2023/04/21 02:47:27;;;;;;;27.63;24.70;;;5.10;99.90;;;;;;6077861;23;20263;-72
2023/04/21 02:49:56;;;;;;;28.45;25.45;;;5.10;99.90;;;;;;6081921;23;20208;-71
2023/04/21 02:52:23;;;;;;;24.58;21.98;;;5.10;99.90;;;;;;6080335;23;20195;-71
2023/04/21 02:54:50;;;;;;;27.45;24.38;;;5.10;99.90;;;;;;6077175;23;20256;-71
2023/04/21 02:57:17;;;;;;;29.58;26.40;;;5.10;99.90;;;;;;6077780;23;20278;-72
2023/04/21 02:59:44;;;;;;;26.50;23.63;;;5.10;99.90;;;;;;6079816;23;20576;-71
2023/04/21 03:02:11;;;;;;;25.45;22.25;;;5.10;99.90;;;;;;6083098;23;20194;-71
2023/04/21 03:04:39;;;;;;;28.10;24.92;;;5.00;99.90;;;;;;6083636;23;20196;-71
2023/04/21 03:07:11;;;;;;;27.98;23.98;;;4.90;99.90;;;;;;6083074;23;20288;-72
2023/04/21 03:09:39;;;;;;;27.38;23.48;;;4.80;99.90;;;;;;6081400;23;20239;-72
2023/04/21 03:12:06;;;;;;;51.28;25.98;;;4.80;99.90;;;;;;6075834;23;20200;-71
2023/04/21 03:14:33;;;;;;;65.05;27.17;;;4.80;99.90;;;;;;6074354;23;20195;-72
2023/04/21 03:17:00;;;;;;;35.13;24.30;;;4.80;99.90;;;;;;6081296;23;20249;-72
2023/04/21 03:19:26;;;;;;;120.18;26.85;;;4.70;99.90;;;;;;6086165;23;21617;-71
2023/04/21 03:21:53;;;;;;;115.95;24.98;;;4.70;99.90;;;;;;6083310;23;20867;-71
2023/04/21 03:24:22;;;;;;;38.40;20.23;;;4.70;99.90;;;;;;6080764;23;20271;-72
2023/04/21 03:26:49;;;;;;;57.90;21.13;;;4.50;99.90;;;;;;6081842;23;20275;-72
2023/04/21 03:29:16;;;;;;;30.60;20.10;;;4.50;99.90;;;;;;6085012;23;20185;-72
2023/04/21 03:31:43;;;;;;;21.08;19.02;;;4.40;99.90;;;;;;6082554;23;20184;-71
2023/04/21 03:34:10;;;;;;;35.85;19.13;;;4.40;99.90;;;;;;6080334;23;20185;-72
2023/04/21 03:36:37;;;;;;;20.27;18.17;;;4.40;99.90;;;;;;6083475;23;20564;-72
2023/04/21 03:39:05;;;;;;;41.40;20.00;;;4.40;99.90;;;;;;6083363;23;20573;-72
2023/04/21 03:41:33;;;;;;;21.83;19.52;;;4.40;99.90;;;;;;6078246;23;20284;-71
2023/04/21 03:44:00;;;;;;;35.13;19.88;;;4.40;99.90;;;;;;6078114;23;20271;-72
2023/04/21 03:46:27;;;;;;;46.85;20.08;;;4.40;99.90;;;;;;6084232;23;20242;-72
2023/04/21 03:48:54;;;;;;;32.58;18.30;;;4.30;99.90;;;;;;6081596;23;20689;-72
2023/04/21 03:51:21;;;;;;;18.40;16.60;;;4.10;99.90;;;;;;6080815;23;20212;-72
2023/04/21 03:53:48;;;;;;;35.13;19.17;;;3.90;99.90;;;;;;6089634;23;20194;-72
2023/04/21 03:56:15;;;;;;;18.48;16.67;;;3.90;99.90;;;;;;6077072;23;20212;-71
2023/04/21 03:58:44;;;;;;;17.98;16.08;;;3.90;99.90;;;;;;6081752;23;20654;-72
2023/04/21 04:01:11;;;;;;;19.50;17.52;;;3.90;99.90;;;;;;6083292;23;20223;-71
2023/04/21 04:03:38;;;;;;;18.52;16.50;;;3.90;99.90;;;;;;6080831;23;20184;-72
2023/04/21 04:06:05;;;;;;;22.60;16.42;;;3.80;99.90;;;;;;6077165;23;20672;-72
2023/04/21 04:08:32;;;;;;;23.40;16.70;;;3.80;99.90;;;;;;6082043;23;20271;-72
2023/04/21 04:10:59;;;;;;;18.17;16.02;;;3.70;99.90;;;;;;6077750;23;20632;-72
2023/04/21 04:13:27;;;;;;;53.53;20.38;;;3.60;99.90;;;;;;6083185;23;20215;-71
2023/04/21 04:15:56;;;;;;;65.78;17.35;;;3.50;99.90;;;;;;6073903;23;20560;-71
2023/04/21 04:18:23;;;;;;;47.50;17.65;;;3.40;99.90;;;;;;6073732;23;20185;-72
2023/04/21 04:20:50;;;;;;;64.97;18.77;;;3.40;99.90;;;;;;6086007;23;20218;-71
2023/04/21 04:23:17;;;;;;;43.67;17.63;;;3.70;99.90;;;;;;6076240;23;20184;-72
2023/04/21 04:25:46;;;;;;;31.55;15.65;;;3.30;99.90;;;;;;6084270;23;20289;-71
2023/04/21 04:28:14;;;;;;;25.70;15.13;;;3.30;99.90;;;;;;6080081;23;20218;-72
2023/04/21 04:30:42;;;;;;;54.75;16.30;;;3.30;99.90;;;;;;6080780;23;20355;-74
2023/04/21 04:33:11;;;;;;;74.63;17.60;;;3.30;99.90;;;;;;6074213;23;20196;-71
2023/04/21 04:35:37;;;;;;;59.97;16.45;;;3.20;99.90;;;;;;6080828;23;20209;-72
2023/04/21 04:38:06;;;;;;;70.57;17.65;;;3.20;99.90;;;;;;6076087;23;20284;-72
2023/04/21 04:40:33;;;;;;;50.25;17.65;;;3.00;99.90;;;;;;6080215;23;20258;-70
2023/04/21 04:43:01;;;;;;;132.68;21.88;;;3.00;99.90;;;;;;6076823;23;20191;-72
2023/04/21 04:45:31;;;;;;;64.53;17.73;;;3.00;99.90;;;;;;6072756;23;20214;-72
2023/04/21 04:47:58;;;;;;;164.80;24.15;;;3.00;99.90;;;;;;6081326;23;20193;-73
2023/04/21 04:50:27;;;;;;;128.27;23.10;;;3.00;99.90;;;;;;6079443;23;20191;-72
2023/04/21 04:52:55;;;;;;;35.58;17.38;;;3.10;99.90;;;;;;6077286;23;20188;-71
2023/04/21 04:55:22;;;;;;;59.38;18.15;;;3.10;99.90;;;;;;6070487;23;20232;-73
2023/04/21 04:57:49;;;;;;;52.20;18.15;;;3.20;99.90;;;;;;6077491;23;20702;-74
2023/04/21 05:00:16;;;;;;;169.75;24.98;;;3.20;99.90;;;;;;6075737;23;20188;-69
2023/04/21 05:02:43;;;;;;;68.20;19.77;;;3.20;99.90;;;;;;6080547;23;20235;-70
2023/04/21 05:05:10;;;;;;;107.32;22.25;;;3.30;99.90;;;;;;6076524;23;20212;-72
2023/04/21 05:07:38;;;;;;;94.47;21.75;;;3.40;99.90;;;;;;6077168;23;20184;-72
2023/04/21 05:10:06;;;;;;;154.77;26.52;;;3.40;99.90;;;;;;6082962;23;20191;-73
2023/04/21 05:12:33;;;;;;;76.05;20.67;;;3.50;99.90;;;;;;6077373;23;20203;-72
2023/04/21 05:15:01;;;;;;;87.07;21.20;;;3.50;99.90;;;;;;6074101;23;20224;-72
2023/04/21 05:17:29;;;;;;;115.60;20.50;;;3.50;99.90;;;;;;6077721;23;20207;-72
2023/04/21 05:19:56;;;;;;;35.42;19.33;;;3.50;99.90;;;;;;6083518;23;20266;-71
2023/04/21 05:22:23;;;;;;;59.30;20.77;;;3.50;99.90;;;;;;6081833;23;20231;-71
2023/04/21 05:24:52;;;;;;;46.15;19.35;;;3.60;99.90;;;;;;6067905;23;20603;-72
2023/04/21 05:27:19;;;;;;;80.32;21.13;;;3.70;99.90;;;;;;6077578;23;20242;-72
2023/04/21 05:29:46;;;;;;;72.15;21.08;;;3.70;99.90;;;;;;6081706;23;20599;-73
2023/04/21 05:32:14;;;;;;;131.68;24.85;;;3.70;99.90;;;;;;6071504;23;20222;-71
2023/04/21 05:34:41;;;;;;;44.70;19.65;;;3.70;99.90;;;;;;6080493;23;20227;-71
2023/04/21 05:37:10;;;;;;;91.07;21.95;;;3.70;99.90;;;;;;6079931;23;20236;-77
2023/04/21 05:39:37;;;;;;;50.83;20.73;;;3.80;99.90;;;;;;6077286;23;20193;-86
2023/04/21 05:42:05;;;;;;;81.63;21.90;;;3.90;99.90;;;;;;6082238;23;20207;-72
2023/04/21 05:44:33;;;;;;;89.13;22.15;;;3.90;99.90;;;;;;6078546;23;20282;-72
2023/04/21 05:47:00;;;;;;;100.18;22.20;;;3.90;99.90;;;;;;6080421;23;20235;-73
2023/04/21 05:49:27;;;;;;;93.45;22.92;;;3.90;99.90;;;;;;6075946;23;20309;-73
2023/04/21 05:51:54;;;;;;;39.35;21.30;;;3.90;99.90;;;;;;6083309;23;20274;-73
2023/04/21 05:54:21;;;;;;;95.28;23.67;;;4.00;99.90;;;;;;6076314;23;20185;-72
2023/04/21 05:56:48;;;;;;;88.88;24.58;;;4.10;99.90;;;;;;6071202;23;20287;-73
2023/04/21 05:59:16;;;;;;;43.65;22.70;;;4.20;99.90;;;;;;6083214;23;20657;-73
2023/04/21 06:01:44;;;;;;;43.72;22.98;;;4.30;99.90;;;;;;6072637;23;20222;-73
2023/04/21 06:04:11;;;;;;;96.85;27.95;;;4.30;99.90;;;;;;6071822;23;20543;-72
2023/04/21 06:06:38;;;;;;;71.85;24.67;;;4.40;99.90;;;;;;6072669;23;20680;-73
2023/04/21 06:09:06;;;;;;;61.63;25.73;;;4.40;99.90;;;;;;6072123;23;20180;-73
2023/04/21 06:11:33;;;;;;;48.17;28.10;;;4.40;99.90;;;;;;6078862;23;20235;-72
2023/04/21 06:14:00;;;;;;;72.03;30.65;;;4.50;99.90;;;;;;6069134;23;20702;-72
2023/04/21 06:16:32;;;;;;;53.45;28.30;;;4.60;99.90;;;;;;6079645;23;20219;-72
2023/04/21 06:18:59;;;;;;;36.78;27.05;;;4.70;99.90;;;;;;6071847;23;20705;-73
2023/04/21 06:21:27;;;;;;;34.33;25.95;;;4.80;99.90;;;;;;6069974;23;20540;-73
2023/04/21 06:23:54;;;;;;;38.28;30.13;;;4.90;99.90;;;;;;6076735;23;20195;-73
2023/04/21 06:26:21;;;;;;;33.20;27.83;;;5.00;99.90;;;;;;6084414;23;20723;-73
2023/04/21 06:28:48;;;;;;;33.67;27.50;;;5.20;99.90;;;;;;6083851;23;20188;-73
2023/04/21 06:31:15;;;;;;;29.55;24.85;;;5.40;99.90;;;;;;6080125;23;20193;-73
2023/04/21 06:33:43;;;;;;;28.38;25.33;;;5.50;99.90;;;;;;6086942;23;20211;-73
2023/04/21 06:36:11;;;;;;;30.55;26.20;;;5.70;99.90;;;;;;6081997;23;20219;-73
2023/04/21 06:38:38;;;;;;;30.17;26.50;;;5.90;99.90;;;;;;6086791;23;20553;-73
2023/04/21 06:41:05;;;;;;;27.88;24.83;;;5.90;99.90;;;;;;6071648;23;20264;-73
2023/04/21 06:43:32;;;;;;;30.38;26.08;;;6.10;99.90;;;;;;6074062;23;20237;-73
2023/04/21 06:45:59;;;;;;;32.10;26.33;;;6.20;99.90;;;;;;6081728;23;20259;-73
2023/04/21 06:48:26;;;;;;;27.30;24.30;;;6.40;99.90;;;;;;6084874;23;20188;-73
2023/04/21 06:50:55;;;;;;;24.33;21.80;;;6.70;99.90;;;;;;6076194;23;20197;-73
2023/04/21 06:53:22;;;;;;;23.10;20.70;;;7.00;99.90;;;;;;6083303;23;20192;-73
2023/04/21 06:55:51;;;;;;;22.08;19.92;;;7.20;99.90;;;;;;6080263;23;20241;-73
2023/04/21 06:58:18;;;;;;;21.85;19.65;;;7.40;99.90;;;;;;6078064;23;20711;-73
2023/04/21 07:00:45;;;;;;;20.45;18.45;;;7.50;99.90;;;;;;6078498;23;20271;-73
2023/04/21 07:03:13;;;;;;;19.48;17.67;;;7.60;99.90;;;;;;6080169;23;20214;-73
2023/04/21 07:05:40;;;;;;;21.25;19.15;;;7.70;99.90;;;;;;6079597;23;20222;-73
2023/04/21 07:08:08;;;;;;;18.70;16.98;;;7.80;99.90;;;;;;6082565;23;20187;-73
2023/04/21 07:10:35;;;;;;;19.58;17.75;;;7.70;99.90;;;;;;6083149;23;20197;-72
2023/04/21 07:13:02;;;;;;;20.00;18.10;;;7.60;99.90;;;;;;6077701;23;20605;-72
2023/04/21 07:15:29;;;;;;;19.40;17.40;;;7.60;99.90;;;;;;6080111;23;20211;-73
2023/04/21 07:17:57;;;;;;;19.55;17.65;;;7.60;99.90;;;;;;6079231;23;20284;-73
2023/04/21 07:20:24;;;;;;;19.88;17.98;;;7.60;99.90;;;;;;6074297;23;20261;-73
2023/04/21 07:22:51;;;;;;;21.77;19.67;;;7.60;99.90;;;;;;6083108;23;20208;-72
2023/04/21 07:25:20;;;;;;;21.73;19.55;;;7.70;99.90;;;;;;6073406;23;20982;-72
2023/04/21 07:27:47;;;;;;;19.35;17.45;;;7.70;99.90;;;;;;6083380;23;20198;-72
2023/04/21 07:30:14;;;;;;;19.45;17.63;;;7.70;99.90;;;;;;6074233;23;20218;-72
2023/04/21 07:32:42;;;;;;;19.80;17.90;;;7.70;99.90;;;;;;6081346;23;20198;-72
2023/04/21 07:35:09;;;;;;;19.35;17.42;;;7.80;99.90;;;;;;6075972;23;20347;-72
2023/04/21 07:37:37;;;;;;;18.08;16.38;;;8.00;99.90;;;;;;6072420;23;20214;-72
2023/04/21 07:40:04;;;;;;;18.30;16.60;;;8.20;99.90;;;;;;6068353;23;20279;-73
2023/04/21 07:42:33;;;;;;;18.88;17.17;;;8.40;99.90;;;;;;6084217;23;20196;-73
2023/04/21 07:45:01;;;;;;;17.17;15.68;;;8.60;99.90;;;;;;6069464;23;20212;-72
2023/04/21 07:47:28;;;;;;;17.85;16.20;;;8.80;99.90;;;;;;6079659;23;20628;-72
2023/04/21 07:49:55;;;;;;;16.65;15.15;;;8.90;99.90;;;;;;6078990;23;20184;-72
2023/04/21 07:52:22;;;;;;;17.17;15.60;;;8.90;99.90;;;;;;6077127;23;20188;-73
2023/04/21 07:54:50;;;;;;;17.40;15.90;;;9.00;99.90;;;;;;6078870;23;20280;-73
2023/04/21 07:57:17;;;;;;;16.20;14.73;;;9.20;99.90;;;;;;6078521;23;20194;-73
2023/04/21 07:59:46;;;;;;;15.73;14.32;;;9.30;99.90;;;;;;6081870;23;20215;-73
2023/04/21 08:02:12;;;;;;;14.70;13.50;;;9.50;99.90;;;;;;6080875;23;20191;-73
2023/04/21 08:04:40;;;;;;;14.13;12.93;;;9.80;99.90;;;;;;6076720;23;20556;-73
2023/04/21 08:07:08;;;;;;;15.45;14.15;;;10.10;99.90;;;;;;6084218;23;20192;-72
2023/04/21 08:09:35;;;;;;;14.25;12.95;;;10.20;99.90;;;;;;6075221;23;20204;-73
2023/04/21 08:12:03;;;;;;;14.10;12.90;;;10.30;99.90;;;;;;6083965;23;20187;-73
2023/04/21 08:14:31;;;;;;;13.85;12.65;;;10.40;99.90;;;;;;6082357;23;20287;-73
2023/04/21 08:16:59;;;;;;;13.75;12.55;;;10.60;99.90;;;;;;6083140;23;20718;-72
2023/04/21 08:19:26;;;;;;;13.23;12.13;;;10.90;99.90;;;;;;6076370;23;20698;-73
2023/04/21 08:21:54;;;;;;;12.55;11.52;;;11.20;99.90;;;;;;6085905;23;20259;-72
2023/04/21 08:24:20;;;;;;;13.85;12.65;;;11.30;99.90;;;;;;6079894;23;20192;-73
2023/04/21 08:26:48;;;;;;;11.18;10.27;;;11.40;99.90;;;;;;6080043;23;20188;-73
2023/04/21 08:29:15;;;;;;;11.63;10.67;;;11.60;99.90;;;;;;6079792;23;20201;-74
2023/04/21 08:31:42;;;;;;;11.30;10.40;;;11.70;99.90;;;;;;6082036;23;20439;-73
2023/04/21 08:34:10;;;;;;;11.30;10.40;;;12.00;99.90;;;;;;6079049;23;20915;-73
2023/04/21 08:36:37;;;;;;;9.30;8.60;;;12.00;99.90;;;;;;6070295;23;20469;-73
2023/04/21 08:39:05;;;;;;;9.80;8.90;;;12.30;99.90;;;;;;6071902;23;20474;-73
2023/04/21 08:41:32;;;;;;;9.63;8.87;;;12.50;99.90;;;;;;6079754;23;20422;-73
2023/04/21 08:43:59;;;;;;;9.20;8.40;;;12.50;99.90;;;;;;6081480;23;20439;-73
2023/04/21 08:46:27;;;;;;;9.77;8.80;;;12.80;99.90;;;;;;6077961;23;20454;-73
2023/04/21 08:48:55;;;;;;;8.27;7.47;;;13.00;99.90;;;;;;6080716;23;20469;-73
2023/04/21 08:51:27;;;;;;;10.20;9.40;;;13.40;99.90;;;;;;6069221;23;20852;-73
2023/04/21 08:53:55;;;;;;;9.67;8.87;;;13.70;99.90;;;;;;6074531;23;20456;-73
2023/04/21 08:56:23;;;;;;;8.97;8.27;;;13.80;99.90;;;;;;6074033;23;20897;-73
2023/04/21 08:58:50;;;;;;;10.67;9.87;;;14.00;99.90;;;;;;6077512;23;20454;-73
2023/04/21 09:01:17;;;;;;;9.70;8.90;;;14.00;99.90;;;;;;6083908;23;20443;-73
2023/04/21 09:03:45;;;;;;;9.00;8.20;;;14.10;99.90;;;;;;6082215;23;20427;-73
2023/04/21 09:06:11;;;;;;;9.63;8.93;;;14.10;99.90;;;;;;6073375;23;20453;-73
2023/04/21 09:08:43;;;;;;;9.27;8.57;;;13.70;99.90;;;;;;6073519;23;20419;-73
2023/04/21 09:11:14;;;;;;;9.13;8.53;;;13.90;99.90;;;;;;6074213;23;20438;-74
2023/04/21 09:13:43;;;;;;;8.87;8.20;;;14.20;99.90;;;;;;6080977;23;20525;-73
2023/04/21 09:16:17;;;;;;;9.83;9.03;;;14.40;99.90;;;;;;6080434;23;20473;-73
2023/04/21 09:18:44;;;;;;;9.83;9.03;;;14.20;99.90;;;;;;6069364;23;20473;-73
2023/04/21 09:21:13;;;;;;;9.53;8.73;;;14.30;99.90;;;;;;6082158;23;20461;-73
2023/04/21 09:23:43;;;;;;;11.80;10.90;;;14.60;99.90;;;;;;6081520;23;20442;-73
2023/04/21 09:26:11;;;;;;;9.40;8.60;;;14.70;99.90;;;;;;6072021;23;20447;-73
2023/04/21 09:28:41;;;;;;;9.60;8.90;;;14.90;99.90;;;;;;6081252;23;20431;-73
2023/04/21 09:31:15;;;;;;;9.20;8.50;;;14.90;99.90;;;;;;6068967;23;20424;-73
2023/04/21 09:33:47;;;;;;;9.80;9.00;;;15.20;99.90;;;;;;6066951;23;20431;-73
2023/04/21 09:36:22;;;;;;;8.90;8.20;;;15.50;99.90;;;;;;6082244;23;20480;-73
2023/04/21 09:39:02;;;;;;;8.60;8.00;;;15.50;99.90;;;;;;6078113;23;21054;-73
2023/04/21 09:41:30;;;;;;;10.20;9.47;;;15.50;99.90;;;;;;6080447;23;20465;-73
2023/04/21 09:44:00;;;;;;;9.43;8.70;;;15.70;99.90;;;;;;6081389;23;20443;-74
2023/04/21 09:46:30;;;;;;;9.43;8.67;;;16.00;99.90;;;;;;6078627;23;20931;-74
2023/04/21 09:49:00;;;;;;;8.60;7.90;;;16.40;99.90;;;;;;6072449;23;20562;-73
2023/04/21 09:51:30;;;;;;;8.80;8.10;;;16.80;99.90;;;;;;6079248;23;20489;-73
2023/04/21 09:54:03;;;;;;;9.00;8.30;;;16.80;99.90;;;;;;6083647;23;20447;-74
2023/04/21 09:56:33;;;;;;;8.93;8.33;;;16.90;99.90;;;;;;6091412;23;21026;-73
2023/04/21 09:59:05;;;;;;;9.10;8.40;;;17.00;99.90;;;;;;6085208;23;20472;-74
2023/04/21 10:01:37;;;;;;;8.93;8.23;;;17.00;99.90;;;;;;6085928;23;20534;-74
2023/04/21 10:04:06;;;;;;;8.93;8.23;;;16.70;99.90;;;;;;6080226;23;20466;-74
2023/04/21 10:06:33;;;;;;;9.30;8.60;;;16.80;99.90;;;;;;6085996;23;20443;-74
2023/04/21 10:09:02;;;;;;;8.87;8.17;;;16.60;99.90;;;;;;6089003;23;20448;-74
2023/04/21 10:11:31;;;;;;;8.83;8.23;;;16.40;99.90;;;;;;6085117;23;20488;-74
2023/04/21 10:13:58;;;;;;;8.93;8.30;;;16.60;99.90;;;;;;6078458;23;20464;-74
2023/04/21 10:16:26;;;;;;;8.47;7.87;;;17.00;99.90;;;;;;6084491;23;20431;-77
2023/04/21 10:18:53;;;;;;;8.23;7.63;;;17.40;99.90;;;;;;6082166;23;20612;-74
2023/04/21 10:21:23;;;;;;;9.10;8.40;;;17.80;99.90;;;;;;6088040;23;20496;-74
2023/04/21 10:23:52;;;;;;;7.73;7.13;;;18.20;99.90;;;;;;6085557;23;20465;-75
2023/04/21 10:26:23;;;;;;;8.30;7.60;;;18.60;99.90;;;;;;6082788;23;20450;-75
2023/04/21 10:28:54;;;;;;;8.27;7.67;;;19.30;99.90;;;;;;6088230;23;21009;-75
2023/04/21 10:31:29;;;;;;;8.50;7.80;;;19.60;99.90;;;;;;6080819;23;20793;-74
2023/04/21 10:34:16;;;;;;;8.27;7.67;;;19.70;99.90;;;;;;6083481;23;20440;-75
2023/04/21 10:36:51;;;;;;;7.87;7.27;;;20.10;99.90;;;;;;6076723;23;20537;-76
2023/04/21 10:39:30;;;;;;;7.40;6.80;;;20.60;99.90;;;;;;6083102;23;20454;-75
2023/04/21 10:42:18;;;;;;;8.07;7.50;;;21.20;99.90;;;;;;6081958;23;20446;-74
2023/04/21 10:44:52;;;;;;;8.43;7.83;;;20.80;99.90;;;;;;6080965;23;20966;-75
2023/04/21 10:47:25;;;;;;;8.30;7.70;;;20.50;99.90;;;;;;6082935;23;20525;-75
2023/04/21 10:49:52;;;;;;;7.47;6.87;;;19.80;99.90;;;;;;6087797;23;20439;-75
2023/04/21 10:52:20;;;;;;;7.87;7.27;;;20.30;99.90;;;;;;6086080;23;20554;-75
2023/04/21 10:55:06;;;;;;;6.80;6.27;;;20.90;99.90;;;;;;6084121;23;20461;-75
2023/04/21 10:57:35;;;;;;;6.80;6.30;;;21.60;99.90;;;;;;6071116;23;20441;-75
2023/04/21 11:00:05;;;;;;;8.20;7.60;;;21.80;99.90;;;;;;6086090;23;20541;-75
2023/04/21 11:02:33;;;;;;;8.03;7.43;;;21.60;99.90;;;;;;6079140;23;20455;-75
2023/04/21 11:05:02;;;;;;;8.47;7.87;;;21.00;99.90;;;;;;6086798;23;20981;-75
2023/04/21 11:07:29;;;;;;;7.43;6.90;;;20.60;99.90;;;;;;6083105;23;20431;-75
2023/04/21 11:09:59;;;;;;;7.80;7.20;;;20.60;99.90;;;;;;6076265;23;20879;-75
2023/04/21 11:12:29;;;;;;;7.27;6.67;;;20.90;99.90;;;;;;6084253;23;20442;-74
2023/04/21 11:14:57;;;;;;;7.90;7.30;;;20.80;99.90;;;;;;6084798;23;20521;-75
2023/04/21 11:17:25;;;;;;;8.77;8.07;;;20.90;99.90;;;;;;6078440;23;20430;-75
2023/04/21 11:19:53;;;;;;;8.27;7.67;;;20.90;99.90;;;;;;6089159;23;20500;-75
2023/04/21 11:22:22;;;;;;;8.07;7.47;;;21.30;99.90;;;;;;6095999;23;20496;-75
2023/04/21 11:24:53;;;;;;;8.17;7.47;;;21.50;99.90;;;;;;6077773;23;20455;-75
2023/04/21 11:27:21;;;;;;;7.20;6.70;;;21.00;99.90;;;;;;6087403;23;21246;-75
2023/04/21 11:29:49;;;;;;;9.10;8.50;;;20.90;99.90;;;;;;6090193;23;20426;-74
2023/04/21 11:32:18;;;;;;;8.10;7.53;;;20.50;99.90;;;;;;6076740;23;20434;-75
2023/04/21 11:34:45;;;;;;;8.30;7.70;;;19.80;99.90;;;;;;6088574;23;20458;-75
2023/04/21 11:37:16;;;;;;;6.13;5.70;;;19.70;99.90;;;;;;6088702;23;20954;-75
2023/04/21 11:39:43;;;;;;;6.90;6.40;;;19.90;99.90;;;;;;6085012;23;20474;-75
2023/04/21 11:42:11;;;;;;;7.20;6.70;;;20.60;99.90;;;;;;6087892;23;20442;-75
2023/04/21 11:44:39;;;;;;;7.17;6.60;;;21.00;99.90;;;;;;6089512;23;20464;-75
2023/04/21 11:47:13;;;;;;;7.00;6.50;;;20.60;99.90;;;;;;6086675;23;20469;-75
2023/04/21 11:49:47;;;;;;;6.80;6.30;;;20.60;99.90;;;;;;6083972;23;20438;-75
2023/04/21 11:52:21;;;;;;;6.63;6.17;;;21.00;99.90;;;;;;6082837;23;20508;-75
2023/04/21 11:54:48;;;;;;;6.07;5.63;;;20.80;99.90;;;;;;6079310;23;20541;-75
2023/04/21 11:57:18;;;;;;;6.30;5.90;;;20.70;99.90;;;;;;6090186;23;20853;-75
2023/04/21 11:59:46;;;;;;;6.53;5.90;;;20.70;99.90;;;;;;6088745;23;20473;-75
2023/04/21 12:02:21;;;;;;;6.93;6.23;;;21.00;99.90;;;;;;6088760;23;20470;-75
2023/04/21 12:04:59;;;;;;;6.70;6.30;;;21.40;99.90;;;;;;6079786;23;20459;-75
2023/04/21 12:07:27;;;;;;;7.57;7.07;;;21.90;99.90;;;;;;6088744;23;20968;-75
2023/04/21 12:09:54;;;;;;;6.17;5.77;;;22.60;99.90;;;;;;6087431;23;20513;-75
2023/04/21 12:12:23;;;;;;;6.13;5.63;;;23.40;99.90;;;;;;6085681;23;20463;-75
2023/04/21 12:14:51;;;;;;;8.00;7.50;;;24.10;99.60;;;;;;6088162;23;20458;-75
2023/04/21 12:17:18;;;;;;;7.17;6.63;;;24.60;98.20;;;;;;6087820;23;20934;-75
2023/04/21 12:19:45;;;;;;;6.50;6.00;;;24.60;96.90;;;;;;6089756;23;20480;-75
2023/04/21 12:22:16;;;;;;;6.97;6.47;;;24.20;97.50;;;;;;6088573;23;20961;-75
2023/04/21 12:24:43;;;;;;;6.43;6.03;;;23.40;98.40;;;;;;6084605;23;20457;-75
2023/04/21 12:27:11;;;;;;;8.50;7.70;;;23.80;98.60;;;;;;6082732;23;20435;-75
2023/04/21 12:29:38;;;;;;;7.10;6.60;;;24.10;97.30;;;;;;6071899;23;21058;-75
2023/04/21 12:32:05;;;;;;;6.83;6.33;;;24.20;97.50;;;;;;6083824;23;20472;-75
2023/04/21 12:34:33;;;;;;;5.77;5.37;;;24.50;97.70;;;;;;6080204;23;20557;-75
2023/04/21 12:37:00;;;;;;;6.40;5.93;;;24.90;96.80;;;;;;6088456;23;21098;-75
2023/04/21 12:39:28;;;;;;;7.80;7.10;;;25.40;95.10;;;;;;6087788;23;20462;-75
2023/04/21 12:41:56;;;;;;;6.63;6.20;;;25.30;94.40;;;;;;6086492;23;20468;-75
2023/04/21 12:44:23;;;;;;;6.27;5.77;;;25.00;95.10;;;;;;6085420;23;20509;-75